Observations for PESCARA, Italy (LIBP)

LIBP 242050Z 22006KT 9999 SCT025 17/14 Q1026
LIBP 241950Z 21006KT 9999 SCT020 BKN085 16/14 Q1026 
LIBP 241850Z 27006KT 230V300 9999 SCT020 SCT055 17/14 Q1025 
LIBP 241750Z 30005KT 9000 -DZ BKN016 17/13 Q1024
LIBP 241650Z 03006KT 360V060 9000 SCT016 BKN040 18/13 Q1023 
LIBP 241550Z 01011KT 9000 SCT007 BKN016 18/14 Q1023 
LIBP 241450Z 35010KT 330V040 3000 -RA BKN010 18/17 Q1021 RERA   
LIBP 241418Z 01008KT 330V030 5000 -RA BKN012 19/17 Q1020
LIBP 241418Z 01008KT 330V030 5000 -RA BKN012 19/17 Q1020 RERA
LIBP 241352Z 01010KT 340V050 3000 RA BKN012 20/17 Q1019
LIBP 241350Z 02011KT 340V050 6000 -RA BKN012 20/17 Q1019
LIBP 241352Z 01010KT 340V050 3000 RA BKN012 20/17 Q1019
LIBP 241250Z 04017KT 8000 BKN012 21/18 Q1017
LIBP 241214Z 04023KT 360V060 9000 SCT020 SCT070 23/19 Q1016
LIBP 241215Z 04022G32KT 360V060 9000 SCT010 SCT070 23/19 Q1016
LIBP 241150Z 05010KT 9999 SCT080 28/20 Q1015
LIBP 241050Z 07008KT 040V120 9999 SCT080 28/20 Q1014
LIBP 240950Z 10010KT 060V130 9999 SCT085 30/20 Q1013
LIBP 240850Z 20009KT CAVOK 30/16 Q1013  
LIBP 240750Z 22006KT 190V250 CAVOK 29/16 Q1013  
LIBP 240650Z 20003KT 170V250 CAVOK 26/16 Q1012  
LIBP 240550Z 22005KT 200V260 CAVOK 22/16 Q1013  
LIBP 240450Z AUTO 20006KT 170V230 9999 NCD 20/16 Q1012  
LIBP 240350Z AUTO 26007KT 220V290 9999 NCD 25/13 Q1011  
LIBP 240250Z AUTO 24007KT 200V280 9999 NCD 26/14 Q1010  
LIBP 240150Z AUTO 24007KT 9999 NCD 25/14 Q1011  
LIBP 240050Z AUTO 25008KT 210V280 9999 NCD 26/14 Q1011  
LIBP 232350Z AUTO 23014KT 9999 NCD 27/14 Q1011  
LIBP 232250Z AUTO 33007KT 9999 NCD 22/16 Q1012  
LIBP 232150Z AUTO 02004KT 350V060 9999 NCD 22/19 Q1013  
LIBP 232050Z VRB02KT CAVOK 21/20 Q1014